createdAt,value
2022-08-30T00:02:27.419Z,62.71
2022-08-30T00:04:55.354Z,63.06
2022-08-30T00:07:23.560Z,63.06
2022-08-30T00:09:51.362Z,62.99
2022-08-30T00:12:23.787Z,63.20
2022-08-30T00:14:51.589Z,63.03
2022-08-30T00:17:19.477Z,63.12
2022-08-30T00:19:47.499Z,63.03
2022-08-30T00:22:15.378Z,63.66
2022-08-30T00:24:43.421Z,63.93
2022-08-30T00:27:11.827Z,63.48
2022-08-30T00:29:41.191Z,63.61
2022-08-30T00:32:09.037Z,63.81
2022-08-30T00:34:36.856Z,64.05
2022-08-30T00:37:04.703Z,64.23
2022-08-30T00:39:32.533Z,64.56
2022-08-30T00:42:00.773Z,64.19
2022-08-30T00:44:28.692Z,64.24
2022-08-30T00:46:57.844Z,64.47
2022-08-30T00:49:26.304Z,64.27
2022-08-30T00:51:55.371Z,64.45
2022-08-30T00:54:25.443Z,64.59
2022-08-30T00:56:54.454Z,64.76
2022-08-30T00:59:24.501Z,65.05
2022-08-30T01:01:53.868Z,65.03
2022-08-30T01:04:26.309Z,64.99
2022-08-30T01:06:54.359Z,65.50
2022-08-30T01:09:23.432Z,65.70
2022-08-30T01:11:51.277Z,65.58
2022-08-30T01:14:21.984Z,65.59
2022-08-30T01:16:57.728Z,65.62
2022-08-30T01:19:38.435Z,65.99
2022-08-30T01:22:20.912Z,65.83
2022-08-30T01:24:53.482Z,65.79
2022-08-30T01:27:24.315Z,65.88
2022-08-30T01:29:53.322Z,65.47
2022-08-30T01:32:29.062Z,66.02
2022-08-30T01:34:58.360Z,65.83
2022-08-30T01:37:31.531Z,65.66
2022-08-30T01:40:01.557Z,66.03
2022-08-30T01:42:29.468Z,66.40
2022-08-30T01:44:57.322Z,66.40
2022-08-30T01:47:25.149Z,66.15
2022-08-30T01:49:53.664Z,66.30
2022-08-30T01:52:21.695Z,66.45
2022-08-30T01:54:50.170Z,66.25
2022-08-30T01:57:23.527Z,66.83
2022-08-30T01:59:51.412Z,66.58
2022-08-30T02:02:23.266Z,66.99
2022-08-30T02:04:51.799Z,67.12
2022-08-30T02:07:20.429Z,66.83
2022-08-30T02:09:48.476Z,66.95
2022-08-30T02:12:16.356Z,67.40
2022-08-30T02:14:45.573Z,67.70
2022-08-30T02:17:15.178Z,67.31
2022-08-30T02:19:43.608Z,67.63
2022-08-30T02:22:12.390Z,67.64
2022-08-30T02:24:40.527Z,67.88
2022-08-30T02:27:08.366Z,68.13
2022-08-30T02:29:36.243Z,67.83
2022-08-30T02:32:06.042Z,67.93
2022-08-30T02:34:34.110Z,67.82
2022-08-30T02:37:02.071Z,68.62
2022-08-30T02:39:29.967Z,67.67
2022-08-30T02:41:57.820Z,68.21
2022-08-30T02:44:25.600Z,67.89
2022-08-30T02:46:53.585Z,68.01
2022-08-30T02:49:33.107Z,68.07
2022-08-30T02:52:04.012Z,68.27
2022-08-30T02:54:33.355Z,68.09
2022-08-30T02:57:04.723Z,68.37
2022-08-30T02:59:33.521Z,68.63
2022-08-30T03:02:01.724Z,68.58
2022-08-30T03:04:30.948Z,68.62
2022-08-30T03:06:59.086Z,68.85
2022-08-30T03:09:26.913Z,68.90
2022-08-30T03:11:54.763Z,69.12
2022-08-30T03:14:22.851Z,68.98
2022-08-30T03:16:51.421Z,68.93
2022-08-30T03:19:19.244Z,69.50
2022-08-30T03:21:49.117Z,69.28
2022-08-30T03:24:17.264Z,69.13
2022-08-30T03:26:46.551Z,69.40
2022-08-30T03:29:14.900Z,69.39
2022-08-30T03:31:53.388Z,69.77
2022-08-30T03:34:23.791Z,69.47
2022-08-30T03:36:55.678Z,69.83
2022-08-30T03:39:24.917Z,69.66
2022-08-30T03:41:53.774Z,69.75
2022-08-30T03:44:21.781Z,69.54
2022-08-30T03:46:50.175Z,69.63
2022-08-30T03:49:19.379Z,70.34
2022-08-30T03:51:48.377Z,70.06
2022-08-30T03:54:18.339Z,69.84
2022-08-30T03:56:46.193Z,69.98
2022-08-30T03:59:14.316Z,70.33
2022-08-30T04:01:42.291Z,70.40
2022-08-30T04:04:10.141Z,69.91
2022-08-30T04:06:38.333Z,70.56
2022-08-30T04:09:06.836Z,70.05
2022-08-30T04:11:36.325Z,70.15
2022-08-30T04:14:04.288Z,70.63
2022-08-30T04:16:32.184Z,70.43
2022-08-30T04:19:00.088Z,70.22
2022-08-30T04:21:28.228Z,69.90
2022-08-30T04:23:56.149Z,69.76
2022-08-30T04:26:27.646Z,69.90
2022-08-30T04:28:59.269Z,69.48
2022-08-30T04:31:27.303Z,69.94
2022-08-30T04:33:55.290Z,70.57
2022-08-30T04:36:23.665Z,70.38
2022-08-30T04:38:51.509Z,70.46
2022-08-30T04:41:20.816Z,70.73
2022-08-30T04:43:51.933Z,70.66
2022-08-30T04:46:21.419Z,70.82
2022-08-30T04:48:49.821Z,71.38
2022-08-30T04:51:18.557Z,70.86
2022-08-30T04:53:46.921Z,70.92
2022-08-30T04:56:18.113Z,70.49
2022-08-30T04:58:47.538Z,70.49
2022-08-30T05:01:18.801Z,70.37
2022-08-30T05:03:54.956Z,70.33
2022-08-30T05:06:28.648Z,70.37
2022-08-30T05:08:59.359Z,70.01
2022-08-30T05:11:28.614Z,70.32
2022-08-30T05:13:56.595Z,70.16
2022-08-30T05:16:24.710Z,70.38
2022-08-30T05:18:54.681Z,69.78
2022-08-30T05:21:26.623Z,69.43
2022-08-30T05:23:57.402Z,69.16
2022-08-30T05:26:29.685Z,69.16
2022-08-30T05:28:58.336Z,69.06
2022-08-30T05:31:29.847Z,68.32
2022-08-30T05:33:59.971Z,67.70
2022-08-30T05:36:31.108Z,66.95
2022-08-30T05:39:00.376Z,66.99
2022-08-30T05:41:28.759Z,66.33
2022-08-30T05:43:59.523Z,65.94
2022-08-30T05:49:07.820Z,64.42
2022-08-30T05:51:43.108Z,64.24
2022-08-30T05:54:13.127Z,63.56
2022-08-30T05:56:45.170Z,62.21
2022-08-30T05:59:15.118Z,61.83
2022-08-30T06:01:46.055Z,62.24
2022-08-30T06:04:15.938Z,62.06
2022-08-30T06:06:44.596Z,61.31
2022-08-30T06:09:14.742Z,61.28
2022-08-30T06:11:43.217Z,60.63
2022-08-30T06:14:11.680Z,59.17
2022-08-30T06:16:40.864Z,59.76
2022-08-30T06:19:10.876Z,59.42
2022-08-30T06:21:41.848Z,58.74
2022-08-30T06:24:11.476Z,58.76
2022-08-30T06:26:43.031Z,58.18
2022-08-30T06:29:14.348Z,57.99
2022-08-30T06:31:42.723Z,57.76
2022-08-30T06:34:11.021Z,57.69
2022-08-30T06:36:40.985Z,57.31
2022-08-30T06:39:09.771Z,57.57
2022-08-30T06:41:40.057Z,56.53
2022-08-30T06:44:18.204Z,56.86
2022-08-30T06:46:46.653Z,56.79
2022-08-30T06:49:14.670Z,55.82
2022-08-30T06:51:44.130Z,55.76
2022-08-30T06:54:13.022Z,54.83
2022-08-30T06:56:48.709Z,55.28
2022-08-30T06:59:26.823Z,54.48
2022-08-30T07:01:55.286Z,53.34
2022-08-30T07:04:24.039Z,52.61
2022-08-30T07:06:53.292Z,51.54
2022-08-30T07:09:23.081Z,51.13
2022-08-30T07:11:53.473Z,50.58
2022-08-30T07:14:22.404Z,50.93
2022-08-30T07:16:51.274Z,50.17
2022-08-30T07:19:20.951Z,50.72
2022-08-30T07:21:50.299Z,50.27
2022-08-30T07:24:20.938Z,49.35
2022-08-30T07:26:51.767Z,48.72
2022-08-30T07:29:21.079Z,47.43
2022-08-30T07:31:49.256Z,46.70
2022-08-30T07:34:19.278Z,46.49
2022-08-30T07:36:48.419Z,46.46
2022-08-30T07:39:16.352Z,46.01
2022-08-30T07:41:45.974Z,46.43
2022-08-30T07:44:14.125Z,45.38
2022-08-30T07:46:42.871Z,45.39
2022-08-30T07:49:12.934Z,45.50
2022-08-30T07:51:41.696Z,44.80
2022-08-30T07:54:09.594Z,43.82
2022-08-30T07:56:37.611Z,43.57
2022-08-30T07:59:06.953Z,42.62
2022-08-30T08:01:34.828Z,43.77
2022-08-30T08:04:03.559Z,42.28
2022-08-30T08:06:34.888Z,41.44
2022-08-30T08:09:04.339Z,41.40
2022-08-30T08:11:34.712Z,42.54
2022-08-30T08:14:04.378Z,42.31
2022-08-30T08:16:36.375Z,41.58
2022-08-30T08:19:08.940Z,40.46
2022-08-30T08:21:37.947Z,40.00
2022-08-30T08:24:06.745Z,40.05
2022-08-30T08:26:37.011Z,39.36
2022-08-30T08:29:07.928Z,38.66
2022-08-30T08:31:38.019Z,39.08
2022-08-30T08:34:06.595Z,38.31
2022-08-30T08:36:35.781Z,37.75
2022-08-30T08:39:06.313Z,38.08
2022-08-30T08:41:53.483Z,37.55
2022-08-30T08:44:41.850Z,37.93
2022-08-30T08:47:17.892Z,37.89
2022-08-30T08:49:51.596Z,37.61
2022-08-30T08:52:47.321Z,37.80
2022-08-30T08:55:20.313Z,37.55
2022-08-30T08:57:48.424Z,37.35
2022-08-30T09:00:16.638Z,36.88
2022-08-30T09:02:55.901Z,35.97
2022-08-30T09:05:29.140Z,35.29
2022-08-30T09:08:04.569Z,35.25
2022-08-30T09:10:49.827Z,35.96
2022-08-30T09:13:19.714Z,34.56
2022-08-30T09:15:54.796Z,33.99
2022-08-30T09:18:45.414Z,33.77
2022-08-30T09:21:20.335Z,34.69
2022-08-30T09:23:55.136Z,34.66
2022-08-30T09:26:30.827Z,34.33
2022-08-30T09:29:00.826Z,34.25
2022-08-30T09:31:32.209Z,33.67
2022-08-30T09:34:06.115Z,33.60
2022-08-30T09:36:41.713Z,33.07
2022-08-30T09:39:18.774Z,32.80
2022-08-30T09:41:50.047Z,32.63
2022-08-30T09:44:22.401Z,32.75
2022-08-30T09:46:54.323Z,32.11
2022-08-30T09:49:37.826Z,32.78
2022-08-30T09:52:18.323Z,31.55
2022-08-30T09:55:08.011Z,31.21
2022-08-30T09:57:48.670Z,31.74
2022-08-30T10:00:21.656Z,32.88
2022-08-30T10:03:13.321Z,32.46
2022-08-30T10:05:57.771Z,32.45
2022-08-30T10:08:45.192Z,32.35
2022-08-30T10:11:26.566Z,31.96
2022-08-30T10:14:15.237Z,31.18
2022-08-30T10:16:56.303Z,31.11
2022-08-30T10:19:40.383Z,30.07
2022-08-30T10:22:19.059Z,29.87
2022-08-30T10:24:51.844Z,29.93
2022-08-30T10:27:26.883Z,30.48
2022-08-30T10:30:02.544Z,29.80
2022-08-30T10:32:41.668Z,29.44
2022-08-30T10:35:19.618Z,29.92
2022-08-30T10:37:58.452Z,29.14
2022-08-30T10:40:51.686Z,28.50
2022-08-30T10:43:31.346Z,27.68
2022-08-30T10:46:05.641Z,28.20
2022-08-30T10:48:41.099Z,27.69
2022-08-30T10:51:24.364Z,27.49
2022-08-30T10:54:02.039Z,27.78
2022-08-30T10:56:31.520Z,28.26
2022-08-30T10:59:00.524Z,27.85
2022-08-30T11:02:03.068Z,28.59
2022-08-30T11:05:07.112Z,28.09
2022-08-30T11:07:47.101Z,28.27
2022-08-30T11:10:49.462Z,27.56
2022-08-30T11:13:25.330Z,27.79
2022-08-30T11:16:01.524Z,27.50
2022-08-30T11:18:40.479Z,26.77
2022-08-30T11:21:25.858Z,26.37
2022-08-30T11:24:11.098Z,27.24
2022-08-30T11:27:02.172Z,26.74
2022-08-30T11:29:41.513Z,26.58
2022-08-30T11:32:57.229Z,26.93
2022-08-30T11:35:49.866Z,25.94
2022-08-30T11:39:01.813Z,26.11
2022-08-30T11:41:43.127Z,25.55
2022-08-30T11:44:31.227Z,26.56
2022-08-30T11:47:01.029Z,26.83
2022-08-30T11:50:02.717Z,26.96
2022-08-30T11:52:59.686Z,27.05
2022-08-30T11:55:53.995Z,27.65
2022-08-30T11:58:44.100Z,27.89
2022-08-30T12:01:49.732Z,26.89
2022-08-30T12:04:37.355Z,26.62
2022-08-30T12:07:08.746Z,25.75
2022-08-30T12:10:06.608Z,25.60
2022-08-30T12:12:51.011Z,26.21
2022-08-30T12:15:56.906Z,26.70
2022-08-30T12:18:32.860Z,26.15
2022-08-30T12:21:12.251Z,25.20
2022-08-30T12:23:51.142Z,25.03
2022-08-30T12:26:31.513Z,25.71
2022-08-30T12:29:16.153Z,25.34
2022-08-30T12:31:48.556Z,25.33
2022-08-30T12:34:23.694Z,25.27
2022-08-30T12:36:59.225Z,24.70
2022-08-30T12:39:31.511Z,24.34
2022-08-30T12:42:17.761Z,24.39
2022-08-30T12:44:50.456Z,25.08
2022-08-30T12:47:25.649Z,24.81
2022-08-30T12:49:55.842Z,24.64
2022-08-30T12:52:34.758Z,24.69
2022-08-30T12:55:17.671Z,24.76
2022-08-30T12:58:00.632Z,24.48
2022-08-30T13:00:34.060Z,24.04
2022-08-30T13:03:16.367Z,23.49
2022-08-30T13:05:54.773Z,24.07
2022-08-30T13:08:29.286Z,24.16
2022-08-30T13:11:07.443Z,24.09
2022-08-30T13:13:44.392Z,24.38
2022-08-30T13:16:29.616Z,23.24
2022-08-30T13:19:31.402Z,24.12
2022-08-30T13:22:00.714Z,23.34
2022-08-30T13:24:30.383Z,24.12
2022-08-30T13:27:06.564Z,24.98
2022-08-30T13:29:36.386Z,24.62
2022-08-30T13:32:06.353Z,23.19
2022-08-30T13:34:35.797Z,23.12
2022-08-30T13:37:06.034Z,23.68
2022-08-30T13:39:34.300Z,23.75
2022-08-30T13:44:53.903Z,24.39
2022-08-30T13:47:32.559Z,24.83
2022-08-30T13:50:00.738Z,25.64
2022-08-30T13:52:29.002Z,26.61
2022-08-30T13:54:58.645Z,26.30
2022-08-30T14:00:21.753Z,26.85
2022-08-30T14:02:55.662Z,25.90
2022-08-30T14:11:05.850Z,24.91
2022-08-30T14:13:34.028Z,24.04
2022-08-30T14:18:56.432Z,24.17
2022-08-30T14:21:25.190Z,24.98
2022-08-30T14:23:53.401Z,25.18
2022-08-30T14:26:24.845Z,24.30
2022-08-30T14:28:54.488Z,25.04
2022-08-30T14:31:25.742Z,25.55
2022-08-30T14:33:53.788Z,25.48
2022-08-30T14:36:22.960Z,26.19
2022-08-30T14:38:52.439Z,25.94
2022-08-30T14:41:20.405Z,26.37
2022-08-30T14:43:49.968Z,25.56
2022-08-30T14:46:18.104Z,25.21
2022-08-30T14:48:46.835Z,24.58
2022-08-30T14:51:18.018Z,24.93
2022-08-30T14:53:51.257Z,24.06
2022-08-30T14:56:21.157Z,24.40
2022-08-30T14:58:50.756Z,24.35
2022-08-30T15:01:20.389Z,24.99
2022-08-30T15:03:48.433Z,25.08
2022-08-30T15:06:16.440Z,25.22
2022-08-30T15:08:47.906Z,25.58
2022-08-30T15:11:21.026Z,25.71
2022-08-30T15:13:49.182Z,25.83
2022-08-30T15:16:25.044Z,25.96
2022-08-30T15:18:54.688Z,26.26
2022-08-30T15:21:24.845Z,26.44
2022-08-30T15:23:54.621Z,26.29
2022-08-30T15:26:24.826Z,25.86
2022-08-30T15:28:53.771Z,25.48
2022-08-30T15:31:25.032Z,25.83
2022-08-30T15:33:52.874Z,26.03
2022-08-30T15:36:20.931Z,25.81
2022-08-30T15:38:48.779Z,25.94
2022-08-30T15:41:16.577Z,26.34
2022-08-30T15:43:45.795Z,26.45
2022-08-30T15:46:22.320Z,26.55
2022-08-30T15:48:55.150Z,26.61
2022-08-30T15:51:25.049Z,27.14
2022-08-30T15:53:53.244Z,26.91
2022-08-30T15:56:21.672Z,26.54
2022-08-30T15:58:53.084Z,26.45
2022-08-30T16:01:30.374Z,26.60
2022-08-30T16:03:59.280Z,27.19
2022-08-30T16:06:32.304Z,27.62
2022-08-30T16:09:01.007Z,27.87
2022-08-30T16:11:29.323Z,28.11
2022-08-30T16:13:59.094Z,28.66
2022-08-30T16:16:27.075Z,28.88
2022-08-30T16:18:55.330Z,28.79
2022-08-30T16:21:26.541Z,28.79
2022-08-30T16:23:56.421Z,28.55
2022-08-30T16:26:25.253Z,28.65
2022-08-30T16:28:54.431Z,28.94
2022-08-30T16:31:26.766Z,28.91
2022-08-30T16:33:55.370Z,28.91
2022-08-30T16:36:32.048Z,29.54
2022-08-30T16:39:00.304Z,29.07
2022-08-30T16:41:28.713Z,29.28
2022-08-30T16:43:56.679Z,29.05
2022-08-30T16:46:28.483Z,29.03
2022-08-30T16:48:59.302Z,29.79
2022-08-30T16:51:31.621Z,29.66
2022-08-30T16:54:04.412Z,30.13
2022-08-30T16:56:34.187Z,30.44
2022-08-30T16:59:03.359Z,30.76
2022-08-30T17:01:37.910Z,30.81
2022-08-30T17:04:08.483Z,31.09
2022-08-30T17:06:37.334Z,31.46
2022-08-30T17:09:06.913Z,31.33
2022-08-30T17:11:36.462Z,31.55
2022-08-30T17:14:05.284Z,32.11
2022-08-30T17:16:37.095Z,32.42
2022-08-30T17:19:07.452Z,32.38
2022-08-30T17:21:36.620Z,32.77
2022-08-30T17:24:06.979Z,32.57
2022-08-30T17:26:37.731Z,32.87
2022-08-30T17:29:07.747Z,33.02
2022-08-30T17:31:37.795Z,33.54
2022-08-30T17:34:05.839Z,33.38
2022-08-30T17:36:36.917Z,34.08
2022-08-30T17:39:10.935Z,33.82
2022-08-30T17:41:45.406Z,34.61
2022-08-30T17:44:19.846Z,35.20
2022-08-30T17:46:49.406Z,35.13
2022-08-30T17:49:17.746Z,35.21
2022-08-30T17:51:47.886Z,35.64
2022-08-30T17:54:20.689Z,35.56
2022-08-30T17:56:56.614Z,35.62
2022-08-30T17:59:26.228Z,35.93
2022-08-30T18:01:55.517Z,35.81
2022-08-30T18:04:27.509Z,36.43
2022-08-30T18:06:55.939Z,36.77
2022-08-30T18:09:24.636Z,36.57
2022-08-30T18:11:56.392Z,36.53
2022-08-30T18:14:25.211Z,36.86
2022-08-30T18:19:46.380Z,37.38
2022-08-30T18:22:15.078Z,37.26
2022-08-30T18:24:43.225Z,37.49
2022-08-30T18:27:11.196Z,37.82
2022-08-30T18:29:41.814Z,37.98
2022-08-30T18:32:11.115Z,38.15
2022-08-30T18:34:40.383Z,38.29
2022-08-30T18:37:12.727Z,38.21
2022-08-30T18:39:41.263Z,38.28
2022-08-30T18:42:10.152Z,38.80
2022-08-30T18:44:39.753Z,39.03
2022-08-30T18:47:07.682Z,39.04
2022-08-30T18:49:37.417Z,39.35
2022-08-30T18:52:09.615Z,39.39
2022-08-30T18:54:42.967Z,39.92
2022-08-30T18:57:14.510Z,39.83
2022-08-30T18:59:44.228Z,40.07
2022-08-30T19:02:15.623Z,40.30
2022-08-30T19:04:47.961Z,40.40
2022-08-30T19:07:19.489Z,40.23
2022-08-30T19:09:48.853Z,40.67
2022-08-30T19:12:16.762Z,41.41
2022-08-30T19:14:45.567Z,40.78
2022-08-30T19:17:13.528Z,41.14
2022-08-30T19:19:48.572Z,41.01
2022-08-30T19:22:19.512Z,41.09
2022-08-30T19:24:50.330Z,41.33
2022-08-30T19:27:21.317Z,41.54
2022-08-30T19:29:53.192Z,41.51
2022-08-30T19:32:22.234Z,42.07
2022-08-30T19:34:50.133Z,42.35
2022-08-30T19:37:18.838Z,42.69
2022-08-30T19:39:48.465Z,42.61
2022-08-30T19:42:16.599Z,43.00
2022-08-30T19:44:44.646Z,42.91
2022-08-30T19:47:13.074Z,43.07
2022-08-30T19:49:41.031Z,43.50
2022-08-30T19:52:09.701Z,43.18
2022-08-30T19:54:37.625Z,43.21
2022-08-30T19:57:09.624Z,43.43
2022-08-30T19:59:37.782Z,43.43
2022-08-30T20:02:06.632Z,43.88
2022-08-30T20:04:34.625Z,43.99
2022-08-30T20:07:02.482Z,44.16
2022-08-30T20:09:30.332Z,44.12
2022-08-30T20:11:58.846Z,44.27
2022-08-30T20:14:28.582Z,44.63
2022-08-30T20:16:56.760Z,44.64
2022-08-30T20:22:15.221Z,45.18
2022-08-30T20:24:27.136Z,36.99
2022-08-30T20:24:43.829Z,45.25
2022-08-30T20:27:12.360Z,45.83
2022-08-30T20:29:43.041Z,46.13
2022-08-30T20:32:10.888Z,46.37
2022-08-30T20:34:39.497Z,46.63
2022-08-30T20:37:08.166Z,46.71
2022-08-30T20:39:37.616Z,46.96
2022-08-30T20:42:06.547Z,47.28
2022-08-30T20:44:34.534Z,47.35
2022-08-30T20:47:04.405Z,47.79
2022-08-30T20:49:32.829Z,48.11
2022-08-30T20:52:00.741Z,48.14
2022-08-30T20:54:33.248Z,48.41
2022-08-30T20:57:01.182Z,48.63
2022-08-30T20:59:29.523Z,48.92
2022-08-30T21:01:59.366Z,49.29
2022-08-30T21:04:33.358Z,49.13
2022-08-30T21:07:01.546Z,49.07
2022-08-30T21:09:30.088Z,49.47
2022-08-30T21:11:59.042Z,49.85
2022-08-30T21:14:27.809Z,49.94
2022-08-30T21:16:55.967Z,50.18
2022-08-30T21:19:24.932Z,50.31
2022-08-30T21:21:54.143Z,50.56
2022-08-30T21:24:22.345Z,50.67
2022-08-30T21:26:51.991Z,51.00
2022-08-30T21:29:20.235Z,51.37
2022-08-30T21:31:48.421Z,51.42
2022-08-30T21:34:17.628Z,51.56
2022-08-30T21:36:46.418Z,51.66
2022-08-30T21:39:20.870Z,51.71
2022-08-30T21:41:50.563Z,51.95
2022-08-30T21:44:21.946Z,51.88
2022-08-30T21:46:52.111Z,52.15
2022-08-30T21:49:24.287Z,52.30
2022-08-30T21:51:53.706Z,52.23
2022-08-30T21:54:24.886Z,52.39
2022-08-30T21:57:04.788Z,52.33
2022-08-30T21:59:34.506Z,52.61
2022-08-30T22:02:02.738Z,52.69
2022-08-30T22:04:30.679Z,52.79
2022-08-30T22:06:59.278Z,52.92
2022-08-30T22:09:29.289Z,53.16
2022-08-30T22:11:57.132Z,52.93
2022-08-30T22:14:27.676Z,53.11
2022-08-30T22:16:55.733Z,52.99
2022-08-30T22:19:24.118Z,53.10
2022-08-30T22:22:01.303Z,53.37
2022-08-30T22:24:31.944Z,53.12
2022-08-30T22:27:02.237Z,53.58
2022-08-30T22:29:30.530Z,53.58
2022-08-30T22:32:00.549Z,53.51
2022-08-30T22:34:28.934Z,53.73
2022-08-30T22:36:59.889Z,53.49
2022-08-30T22:39:29.199Z,53.44
2022-08-30T22:41:58.389Z,53.22
2022-08-30T22:44:27.294Z,53.24
2022-08-30T22:46:55.179Z,53.37
2022-08-30T22:49:23.019Z,52.98
2022-08-30T22:51:50.873Z,53.35
2022-08-30T22:54:18.830Z,53.29
2022-08-30T22:56:46.875Z,53.17
2022-08-30T22:59:16.223Z,53.28
2022-08-30T23:01:44.500Z,52.92
2022-08-30T23:04:13.080Z,52.92
2022-08-30T23:06:41.824Z,52.83
2022-08-30T23:09:18.527Z,53.00
2022-08-30T23:11:46.790Z,52.92
2022-08-30T23:14:16.323Z,52.97
2022-08-30T23:16:44.995Z,52.93
2022-08-30T23:19:13.177Z,52.98
2022-08-30T23:21:42.434Z,53.04
2022-08-30T23:24:28.855Z,53.15
2022-08-30T23:27:15.304Z,53.15
2022-08-30T23:30:03.259Z,53.02
2022-08-30T23:32:49.832Z,53.47
2022-08-30T23:35:37.140Z,53.79
2022-08-30T23:38:24.960Z,53.58
2022-08-30T23:41:11.422Z,53.76
2022-08-30T23:43:58.240Z,53.85
2022-08-30T23:46:46.010Z,53.80
2022-08-30T23:49:33.045Z,53.73
2022-08-30T23:52:19.615Z,53.80
2022-08-30T23:55:06.269Z,53.59
2022-08-30T23:57:52.954Z,53.60
